createdAt,value
2023-08-15T00:02:21.139Z,22.35
2023-08-15T00:04:48.708Z,22.33
2023-08-15T00:07:18.345Z,22.23
2023-08-15T00:09:50.586Z,22.16
2023-08-15T00:12:20.400Z,22.09
2023-08-15T00:14:51.144Z,22.05
2023-08-15T00:17:20.690Z,21.99
2023-08-15T00:19:48.817Z,21.99
2023-08-15T00:22:18.726Z,21.96
2023-08-15T00:24:47.382Z,21.95
2023-08-15T00:27:16.768Z,21.91
2023-08-15T00:29:48.383Z,21.90
2023-08-15T00:32:17.178Z,21.91
2023-08-15T00:34:46.104Z,21.86
2023-08-15T00:37:14.613Z,21.89
2023-08-15T00:39:42.730Z,21.87
2023-08-15T00:42:11.595Z,21.83
2023-08-15T00:44:44.844Z,21.86
2023-08-15T00:47:12.959Z,21.91
2023-08-15T00:49:42.927Z,21.92
2023-08-15T00:52:13.890Z,21.90
2023-08-15T00:54:49.361Z,21.89
2023-08-15T00:57:21.560Z,21.85
2023-08-15T00:59:50.850Z,21.81
2023-08-15T01:02:21.777Z,21.83
2023-08-15T01:04:52.417Z,21.82
2023-08-15T01:07:21.251Z,21.86
2023-08-15T01:09:49.480Z,21.88
2023-08-15T01:12:33.194Z,21.87
2023-08-15T01:15:06.835Z,21.86
2023-08-15T01:18:03.199Z,21.76
2023-08-15T01:20:34.599Z,21.80
2023-08-15T01:23:07.827Z,21.78
2023-08-15T01:25:43.413Z,21.70
2023-08-15T01:28:13.766Z,21.60
2023-08-15T01:30:58.554Z,21.44
2023-08-15T01:33:38.896Z,21.37
2023-08-15T01:36:27.697Z,21.31
2023-08-15T01:39:03.266Z,21.35
2023-08-15T01:41:37.253Z,21.38
2023-08-15T01:44:08.571Z,21.42
2023-08-15T01:46:37.632Z,21.38
2023-08-15T01:49:05.276Z,21.42
2023-08-15T01:51:34.395Z,21.40
2023-08-15T01:54:04.868Z,21.39
2023-08-15T01:56:35.104Z,21.41
2023-08-15T01:59:03.119Z,21.37
2023-08-15T02:01:32.275Z,21.34
2023-08-15T02:04:00.113Z,21.32
2023-08-15T02:06:33.173Z,21.40
2023-08-15T02:09:02.149Z,21.38
2023-08-15T02:11:36.094Z,21.33
2023-08-15T02:14:04.840Z,21.33
2023-08-15T02:16:35.851Z,21.28
2023-08-15T02:19:04.734Z,21.29
2023-08-15T02:21:34.157Z,21.27
2023-08-15T02:24:03.110Z,21.30
2023-08-15T02:26:31.601Z,21.30
2023-08-15T02:29:00.518Z,21.29
2023-08-15T02:31:30.595Z,21.26
2023-08-15T02:33:58.248Z,21.23
2023-08-15T02:36:25.870Z,21.22
2023-08-15T02:38:53.768Z,21.15
2023-08-15T02:41:25.004Z,21.07
2023-08-15T02:43:53.803Z,21.00
2023-08-15T02:46:23.498Z,20.91
2023-08-15T02:48:57.406Z,20.86
2023-08-15T02:51:29.008Z,20.80
2023-08-15T02:53:57.201Z,20.81
2023-08-15T02:56:26.588Z,20.82
2023-08-15T02:58:56.465Z,20.78
2023-08-15T03:01:28.004Z,20.76
2023-08-15T03:03:55.615Z,20.67
2023-08-15T03:06:25.653Z,20.60
2023-08-15T03:08:53.185Z,20.59
2023-08-15T03:11:24.429Z,20.58
2023-08-15T03:13:52.159Z,20.57
2023-08-15T03:16:19.868Z,20.56
2023-08-15T03:18:49.943Z,20.48
2023-08-15T03:21:20.244Z,20.36
2023-08-15T03:23:48.403Z,20.29
2023-08-15T03:26:17.067Z,20.23
2023-08-15T03:28:50.124Z,20.19
2023-08-15T03:31:18.121Z,20.10
2023-08-15T03:33:52.840Z,20.08
2023-08-15T03:36:21.058Z,20.04
2023-08-15T03:38:49.773Z,20.07
2023-08-15T03:41:19.884Z,20.16
2023-08-15T03:43:49.103Z,20.18
2023-08-15T03:46:21.537Z,20.13
2023-08-15T03:48:51.289Z,20.22
2023-08-15T03:51:44.216Z,20.22
2023-08-15T03:54:15.716Z,20.24
2023-08-15T03:56:43.846Z,20.21
2023-08-15T03:59:13.372Z,20.16
2023-08-15T04:01:44.129Z,20.08
2023-08-15T04:04:12.155Z,20.02
2023-08-15T04:06:42.715Z,20.01
2023-08-15T04:09:10.342Z,20.01
2023-08-15T04:11:38.210Z,19.99
2023-08-15T04:14:07.990Z,20.09
2023-08-15T04:16:36.941Z,20.11
2023-08-15T04:19:05.353Z,20.16
2023-08-15T04:21:34.135Z,20.16
2023-08-15T04:24:04.338Z,20.20
2023-08-15T04:26:32.201Z,20.34
2023-08-15T04:29:01.015Z,20.38
2023-08-15T04:31:35.764Z,20.40
2023-08-15T04:34:08.199Z,20.43
2023-08-15T04:36:45.562Z,20.51
2023-08-15T04:39:15.618Z,20.60
2023-08-15T04:41:46.829Z,20.67
2023-08-15T04:44:15.297Z,20.61
2023-08-15T04:46:43.003Z,20.64
2023-08-15T04:49:17.788Z,20.66
2023-08-15T04:51:46.462Z,20.72
2023-08-15T04:54:14.053Z,20.75
2023-08-15T04:56:42.926Z,20.73
2023-08-15T04:59:10.496Z,20.75
2023-08-15T05:01:38.049Z,20.77
2023-08-15T05:04:05.999Z,20.73
2023-08-15T05:06:36.390Z,20.82
2023-08-15T05:09:04.010Z,21.04
2023-08-15T05:11:33.817Z,21.17
2023-08-15T05:14:03.925Z,20.99
2023-08-15T05:16:32.113Z,21.07
2023-08-15T05:19:00.799Z,21.01
2023-08-15T05:21:29.605Z,21.01
2023-08-15T05:23:58.713Z,20.97
2023-08-15T05:26:27.882Z,21.00
2023-08-15T05:28:57.600Z,21.17
2023-08-15T05:31:28.681Z,21.17
2023-08-15T05:33:57.288Z,21.26
2023-08-15T05:36:26.059Z,21.21
2023-08-15T05:38:53.688Z,21.19
2023-08-15T05:41:25.715Z,21.26
2023-08-15T05:43:54.938Z,21.40
2023-08-15T05:46:27.794Z,21.55
2023-08-15T05:48:56.420Z,21.74
2023-08-15T05:51:24.208Z,21.82
2023-08-15T05:53:53.011Z,22.00
2023-08-15T05:56:21.798Z,22.14
2023-08-15T05:58:49.833Z,22.29
2023-08-15T06:01:17.377Z,22.18
2023-08-15T06:03:52.415Z,22.03
2023-08-15T06:06:23.106Z,22.15
2023-08-15T06:08:50.687Z,22.31
2023-08-15T06:11:20.872Z,22.45
2023-08-15T06:13:48.843Z,22.57
2023-08-15T06:16:17.712Z,22.66
2023-08-15T06:18:46.701Z,22.59
2023-08-15T06:21:17.497Z,22.66
2023-08-15T06:23:53.892Z,22.75
2023-08-15T06:26:24.052Z,22.84
2023-08-15T06:31:31.447Z,23.13
2023-08-15T06:33:59.679Z,23.28
2023-08-15T06:36:31.415Z,23.36
2023-08-15T06:39:02.061Z,23.54
2023-08-15T06:41:29.776Z,23.69
2023-08-15T06:43:58.133Z,23.86
2023-08-15T06:46:26.414Z,24.01
2023-08-15T06:48:54.470Z,24.11
2023-08-15T06:51:22.203Z,24.16
2023-08-15T06:53:54.123Z,24.19
2023-08-15T06:56:22.366Z,24.37
2023-08-15T06:58:52.256Z,24.46
2023-08-15T07:01:20.431Z,24.35
2023-08-15T07:03:48.218Z,24.36
2023-08-15T07:06:17.295Z,24.42
2023-08-15T07:08:45.544Z,24.45
2023-08-15T07:11:13.212Z,24.56
2023-08-15T07:13:46.180Z,24.45
2023-08-15T07:16:16.866Z,24.48
2023-08-15T07:18:44.497Z,24.43
2023-08-15T07:21:12.129Z,24.40
2023-08-15T07:23:40.485Z,24.43
2023-08-15T07:26:09.565Z,24.41
2023-08-15T07:28:37.297Z,24.46
2023-08-15T07:31:04.962Z,24.70
2023-08-15T07:33:33.866Z,24.87
2023-08-15T07:36:03.207Z,25.05
2023-08-15T07:38:30.673Z,25.30
2023-08-15T07:40:58.904Z,25.52
2023-08-15T07:43:26.904Z,25.58
2023-08-15T07:45:54.589Z,25.65
2023-08-15T07:48:22.345Z,25.67
2023-08-15T07:50:50.713Z,25.59
2023-08-15T07:53:18.368Z,25.91
2023-08-15T07:55:46.496Z,26.10
2023-08-15T07:58:15.706Z,26.16
2023-08-15T08:00:45.728Z,26.30
2023-08-15T08:03:13.768Z,26.27
2023-08-15T08:05:41.450Z,26.48
2023-08-15T08:08:09.607Z,26.65
2023-08-15T08:10:40.101Z,26.92
2023-08-15T08:13:13.259Z,26.65
2023-08-15T08:15:44.339Z,26.61
2023-08-15T08:18:11.899Z,26.73
2023-08-15T08:20:41.039Z,26.73
2023-08-15T08:23:09.401Z,26.48
2023-08-15T08:25:37.452Z,26.66
2023-08-15T08:28:06.191Z,26.76
2023-08-15T08:30:36.155Z,26.92
2023-08-15T08:33:06.122Z,27.10
2023-08-15T08:35:33.899Z,27.19
2023-08-15T08:38:02.552Z,27.43
2023-08-15T08:40:33.830Z,27.80
2023-08-15T08:43:02.593Z,28.06
2023-08-15T08:45:35.134Z,28.06
2023-08-15T08:48:10.690Z,28.08
2023-08-15T08:50:39.100Z,28.16
2023-08-15T08:53:09.208Z,28.14
2023-08-15T08:55:40.383Z,27.90
2023-08-15T08:58:12.010Z,27.64
2023-08-15T09:00:44.106Z,27.58
2023-08-15T09:03:11.741Z,27.47
2023-08-15T09:05:43.944Z,27.81
2023-08-15T09:08:12.759Z,27.74
2023-08-15T09:10:41.747Z,27.59
2023-08-15T09:13:11.647Z,27.68
2023-08-15T09:15:44.677Z,27.48
2023-08-15T09:18:20.425Z,27.70
2023-08-15T09:20:51.031Z,28.02
2023-08-15T09:23:19.356Z,28.39
2023-08-15T09:25:56.651Z,28.54
2023-08-15T09:28:25.045Z,28.56
2023-08-15T09:30:57.964Z,29.56
2023-08-15T09:33:27.530Z,30.69
2023-08-15T09:35:59.030Z,31.23
2023-08-15T09:38:28.791Z,31.96
2023-08-15T09:40:58.204Z,32.76
2023-08-15T09:43:25.843Z,32.25
2023-08-15T09:45:58.125Z,32.52
2023-08-15T09:48:30.931Z,32.90
2023-08-15T09:50:58.787Z,33.13
2023-08-15T09:53:26.595Z,32.59
2023-08-15T09:55:55.017Z,32.42
2023-08-15T09:58:23.577Z,33.43
2023-08-15T10:00:54.278Z,33.45
2023-08-15T10:03:31.070Z,33.63
2023-08-15T10:06:02.494Z,33.56
2023-08-15T10:08:32.268Z,33.56
2023-08-15T10:11:01.112Z,34.81
2023-08-15T10:13:33.322Z,34.63
2023-08-15T10:16:03.342Z,34.54
2023-08-15T10:18:32.026Z,35.01
2023-08-15T10:21:00.680Z,35.40
2023-08-15T10:23:33.715Z,34.34
2023-08-15T10:26:02.855Z,34.34
2023-08-15T10:28:37.233Z,33.39
2023-08-15T10:31:08.436Z,33.67
2023-08-15T10:33:36.266Z,33.25
2023-08-15T10:36:04.376Z,34.67
2023-08-15T10:38:40.998Z,34.86
2023-08-15T10:41:18.837Z,35.69
2023-08-15T10:43:51.400Z,35.89
2023-08-15T10:46:26.510Z,35.52
2023-08-15T10:49:03.493Z,35.56
2023-08-15T10:51:39.860Z,34.48
2023-08-15T10:54:13.078Z,34.75
2023-08-15T10:56:42.607Z,33.55
2023-08-15T10:59:13.917Z,33.83
2023-08-15T11:01:48.048Z,34.69
2023-08-15T11:04:21.273Z,35.22
2023-08-15T11:06:52.644Z,34.90
2023-08-15T11:09:20.344Z,33.15
2023-08-15T11:11:49.803Z,32.63
2023-08-15T11:14:19.527Z,31.88
2023-08-15T11:16:49.523Z,31.68
2023-08-15T11:19:18.860Z,31.75
2023-08-15T11:21:48.863Z,31.07
2023-08-15T11:24:16.998Z,30.77
2023-08-15T11:26:44.647Z,30.65
2023-08-15T11:29:14.077Z,30.34
2023-08-15T11:31:43.358Z,30.38
2023-08-15T11:34:13.052Z,30.80
2023-08-15T11:36:48.462Z,30.81
2023-08-15T11:39:16.248Z,30.57
2023-08-15T11:41:45.504Z,31.05
2023-08-15T11:44:13.429Z,30.90
2023-08-15T11:49:19.540Z,30.89
2023-08-15T11:51:48.352Z,31.94
2023-08-15T11:54:16.033Z,32.43
2023-08-15T11:56:53.868Z,32.92
2023-08-15T11:59:24.448Z,33.09
2023-08-15T12:01:54.122Z,32.85
2023-08-15T12:04:23.521Z,32.76
2023-08-15T12:06:52.542Z,34.13
2023-08-15T12:09:20.260Z,33.96
2023-08-15T12:11:48.742Z,33.22
2023-08-15T12:14:20.969Z,33.18
2023-08-15T12:16:51.263Z,33.00
2023-08-15T12:19:22.559Z,32.61
2023-08-15T12:21:53.123Z,32.56
2023-08-15T12:24:24.180Z,33.18
2023-08-15T12:26:53.644Z,33.01
2023-08-15T12:29:44.753Z,33.50
2023-08-15T12:32:08.916Z,32.95
2023-08-15T12:34:38.340Z,32.94
2023-08-15T12:37:08.149Z,32.90
2023-08-15T12:39:36.683Z,33.33
2023-08-15T12:42:08.011Z,33.77
2023-08-15T12:44:37.306Z,33.01
2023-08-15T12:47:06.505Z,33.28
2023-08-15T12:49:34.976Z,33.54
2023-08-15T12:52:06.232Z,34.17
2023-08-15T12:54:35.147Z,33.43
2023-08-15T12:57:03.089Z,33.69
2023-08-15T12:59:34.655Z,32.89
2023-08-15T13:02:04.734Z,33.18
2023-08-15T13:04:32.358Z,33.35
2023-08-15T13:07:04.727Z,34.36
2023-08-15T13:09:34.000Z,33.67
2023-08-15T13:12:02.522Z,33.49
2023-08-15T13:14:33.910Z,34.07
2023-08-15T13:17:02.004Z,34.49
2023-08-15T13:19:30.162Z,33.01
2023-08-15T13:21:59.599Z,33.42
2023-08-15T13:24:29.120Z,33.22
2023-08-15T13:26:56.784Z,32.69
2023-08-15T13:29:25.673Z,32.79
2023-08-15T13:31:54.517Z,32.83
2023-08-15T13:34:25.781Z,33.09
2023-08-15T13:36:53.853Z,32.42
2023-08-15T13:39:21.429Z,32.94
2023-08-15T13:41:50.989Z,33.80
2023-08-15T13:44:18.508Z,33.84
2023-08-15T13:46:46.648Z,33.35
2023-08-15T13:49:14.407Z,33.06
2023-08-15T13:51:43.606Z,32.58
2023-08-15T13:54:11.469Z,32.67
2023-08-15T13:56:40.275Z,33.07
2023-08-15T14:00:52.740Z,32.25
2023-08-15T14:03:21.434Z,31.80
2023-08-15T14:05:50.407Z,30.93
2023-08-15T14:08:18.160Z,30.47
2023-08-15T14:10:48.843Z,29.93
2023-08-15T14:13:16.871Z,29.67
2023-08-15T14:15:44.314Z,29.52
2023-08-15T14:18:13.717Z,29.37
2023-08-15T14:20:41.857Z,29.39
2023-08-15T14:23:09.459Z,29.42
2023-08-15T14:25:38.277Z,29.08
2023-08-15T14:28:08.037Z,28.87
2023-08-15T14:30:35.931Z,28.51
2023-08-15T14:33:05.614Z,28.56
2023-08-15T14:35:34.369Z,28.64
2023-08-15T14:38:04.455Z,28.79
2023-08-15T14:40:34.867Z,29.19
2023-08-15T14:43:03.880Z,29.53
2023-08-15T14:45:31.629Z,29.71
2023-08-15T14:47:59.267Z,29.73
2023-08-15T14:50:27.060Z,29.80
2023-08-15T14:52:54.797Z,29.90
2023-08-15T14:55:24.736Z,30.38
2023-08-15T14:57:55.137Z,30.41
2023-08-15T15:00:25.975Z,30.33
2023-08-15T15:02:54.281Z,30.44
2023-08-15T15:05:23.764Z,30.24
2023-08-15T15:07:57.358Z,30.03
2023-08-15T15:10:25.071Z,30.01
2023-08-15T15:12:54.541Z,30.02
2023-08-15T15:15:28.032Z,30.10
2023-08-15T15:18:09.313Z,30.20
2023-08-15T15:20:37.934Z,29.97
2023-08-15T15:23:05.705Z,29.90
2023-08-15T15:25:34.547Z,30.03
2023-08-15T15:28:05.245Z,30.59
2023-08-15T15:30:33.009Z,30.48
2023-08-15T15:33:03.854Z,31.08
2023-08-15T15:35:31.789Z,31.55
2023-08-15T15:37:59.559Z,31.53
2023-08-15T15:40:36.854Z,30.19
2023-08-15T15:43:04.712Z,30.63
2023-08-15T15:45:37.442Z,30.33
2023-08-15T15:48:05.903Z,30.15
2023-08-15T15:50:38.249Z,30.40
2023-08-15T15:53:07.496Z,30.86
2023-08-15T15:55:39.269Z,31.25
2023-08-15T15:58:07.043Z,31.45
2023-08-15T16:00:34.791Z,31.65
2023-08-15T16:03:03.521Z,31.44
2023-08-15T16:05:33.800Z,31.29
2023-08-15T16:08:02.854Z,30.84
2023-08-15T16:10:33.401Z,30.22
2023-08-15T16:13:01.490Z,29.90
2023-08-15T16:15:29.460Z,29.69
2023-08-15T16:17:58.600Z,29.77
2023-08-15T16:20:26.494Z,29.66
2023-08-15T16:22:54.226Z,29.50
2023-08-15T16:25:23.201Z,29.39
2023-08-15T16:27:57.859Z,29.32
2023-08-15T16:30:26.467Z,29.28
2023-08-15T16:32:58.249Z,29.35
2023-08-15T16:35:27.053Z,29.27
2023-08-15T16:38:00.362Z,29.34
2023-08-15T16:40:30.412Z,29.74
2023-08-15T16:43:12.822Z,29.60
2023-08-15T16:45:41.595Z,29.58
2023-08-15T16:48:14.974Z,29.45
2023-08-15T16:50:45.423Z,29.33
2023-08-15T16:53:13.696Z,29.36
2023-08-15T16:55:41.337Z,29.53
2023-08-15T16:58:13.848Z,29.60
2023-08-15T17:00:41.579Z,29.73
2023-08-15T17:03:13.182Z,29.71
2023-08-15T17:05:42.303Z,29.74
2023-08-15T17:08:11.833Z,29.90
2023-08-15T17:10:40.614Z,29.71
2023-08-15T17:13:11.752Z,29.51
2023-08-15T17:15:46.498Z,29.24
2023-08-15T17:18:15.716Z,29.27
2023-08-15T17:20:51.553Z,29.48
2023-08-15T17:23:24.307Z,29.54
2023-08-15T17:25:53.584Z,29.48
2023-08-15T17:28:21.382Z,29.40
2023-08-15T17:30:52.131Z,29.25
2023-08-15T17:33:22.854Z,29.15
2023-08-15T17:35:51.668Z,29.09
2023-08-15T17:38:19.135Z,29.02
2023-08-15T17:40:50.372Z,28.98
2023-08-15T17:43:18.999Z,28.88
2023-08-15T17:45:51.126Z,28.79
2023-08-15T17:48:22.674Z,28.76
2023-08-15T17:50:50.749Z,28.73
2023-08-15T17:53:33.347Z,28.67
2023-08-15T17:56:03.848Z,28.58
2023-08-15T17:58:51.654Z,28.52
2023-08-15T18:01:20.286Z,28.43
2023-08-15T18:03:50.561Z,28.33
2023-08-15T18:06:19.743Z,28.23
2023-08-15T18:08:50.781Z,28.08
2023-08-15T18:11:24.062Z,28.01
2023-08-15T18:13:51.826Z,27.93
2023-08-15T18:16:26.634Z,27.88
2023-08-15T18:18:56.059Z,27.80
2023-08-15T18:21:30.614Z,27.78
2023-08-15T18:23:58.332Z,27.73
2023-08-15T18:26:27.889Z,27.68
2023-08-15T18:28:57.353Z,27.66
2023-08-15T18:31:26.678Z,27.64
2023-08-15T18:33:54.837Z,27.54
2023-08-15T18:36:25.370Z,27.49
2023-08-15T18:38:55.065Z,27.44
2023-08-15T18:41:23.916Z,27.34
2023-08-15T18:43:51.423Z,27.30
2023-08-15T18:46:20.363Z,27.26
2023-08-15T18:48:49.821Z,27.18
2023-08-15T18:51:17.583Z,27.15
2023-08-15T18:53:46.218Z,27.11
2023-08-15T18:56:13.810Z,27.05
2023-08-15T18:58:45.119Z,27.01
2023-08-15T19:01:15.422Z,26.96
2023-08-15T19:03:44.099Z,26.93
2023-08-15T19:06:14.686Z,26.90
2023-08-15T19:08:43.212Z,26.88
2023-08-15T19:11:11.970Z,26.83
2023-08-15T19:13:39.744Z,26.83
2023-08-15T19:16:07.610Z,26.70
2023-08-15T19:18:35.201Z,26.59
2023-08-15T19:21:04.437Z,26.50
2023-08-15T19:23:32.336Z,26.44
2023-08-15T19:26:00.463Z,26.33
2023-08-15T19:28:29.839Z,26.26
2023-08-15T19:30:58.424Z,26.19
2023-08-15T19:33:27.388Z,26.17
2023-08-15T19:35:54.985Z,26.15
2023-08-15T19:38:22.617Z,26.09
2023-08-15T19:40:50.141Z,26.10
2023-08-15T19:43:19.331Z,26.11
2023-08-15T19:45:49.356Z,26.09
2023-08-15T19:48:19.978Z,26.05
2023-08-15T19:50:47.906Z,26.01
2023-08-15T19:53:17.606Z,26.01
2023-08-15T19:55:45.267Z,26.01
2023-08-15T19:58:13.722Z,26.04
2023-08-15T20:00:42.487Z,25.96
2023-08-15T20:03:10.272Z,25.92
2023-08-15T20:05:37.867Z,25.82
2023-08-15T20:08:06.321Z,25.81
2023-08-15T20:10:34.736Z,25.80
2023-08-15T20:13:03.539Z,25.76
2023-08-15T20:15:38.003Z,25.66
2023-08-15T20:18:09.532Z,25.62
2023-08-15T20:20:43.184Z,25.61
2023-08-15T20:23:10.768Z,25.57
2023-08-15T20:25:38.381Z,25.49
2023-08-15T20:28:06.502Z,25.45
2023-08-15T20:30:34.880Z,25.33
2023-08-15T20:33:04.662Z,25.28
2023-08-15T20:35:36.053Z,25.18
2023-08-15T20:38:03.678Z,25.09
2023-08-15T20:40:35.087Z,25.08
2023-08-15T20:43:06.539Z,25.07
2023-08-15T20:45:35.464Z,25.02
2023-08-15T20:48:03.501Z,24.99
2023-08-15T20:50:31.529Z,25.07
2023-08-15T20:52:59.134Z,24.99
2023-08-15T20:55:28.776Z,24.94
2023-08-15T20:57:56.904Z,24.85
2023-08-15T21:00:24.757Z,24.79
2023-08-15T21:02:52.600Z,24.76
2023-08-15T21:06:07.008Z,24.77
2023-08-15T21:08:34.691Z,24.77
2023-08-15T21:11:04.393Z,24.75
2023-08-15T21:13:31.968Z,24.70
2023-08-15T21:15:59.794Z,24.66
2023-08-15T21:18:41.937Z,24.63
2023-08-15T21:21:09.585Z,24.59
2023-08-15T21:23:37.400Z,24.54
2023-08-15T21:26:04.981Z,24.50
2023-08-15T21:28:39.913Z,24.51
2023-08-15T21:31:11.861Z,24.51
2023-08-15T21:33:39.529Z,24.53
2023-08-15T21:36:10.360Z,24.55
2023-08-15T21:38:40.672Z,24.57
2023-08-15T21:41:11.404Z,24.54
2023-08-15T21:43:39.677Z,24.48
2023-08-15T21:46:07.891Z,24.42
2023-08-15T21:48:35.847Z,24.43
2023-08-15T21:51:06.086Z,24.39
2023-08-15T21:53:34.206Z,24.35
2023-08-15T21:56:02.971Z,24.34
2023-08-15T21:58:30.417Z,24.32
2023-08-15T22:00:58.368Z,24.27
2023-08-15T22:03:26.770Z,24.25
2023-08-15T22:05:55.608Z,24.12
2023-08-15T22:08:28.112Z,24.11
2023-08-15T22:10:55.690Z,24.07
2023-08-15T22:13:23.974Z,23.98
2023-08-15T22:15:52.125Z,23.93
2023-08-15T22:18:21.813Z,23.86
2023-08-15T22:20:51.217Z,23.84
2023-08-15T22:23:21.999Z,23.72
2023-08-15T22:25:51.389Z,23.64
2023-08-15T22:28:19.780Z,23.55
2023-08-15T22:30:51.688Z,23.55
2023-08-15T22:33:22.536Z,23.51
2023-08-15T22:35:54.629Z,23.50
2023-08-15T22:38:23.585Z,23.44
2023-08-15T22:40:51.294Z,23.41
2023-08-15T22:43:20.354Z,23.38
2023-08-15T22:45:50.339Z,23.30
2023-08-15T22:48:18.113Z,23.29
2023-08-15T22:50:45.690Z,23.31
2023-08-15T22:53:18.121Z,23.32
2023-08-15T22:55:46.904Z,23.29
2023-08-15T22:58:19.495Z,23.26
2023-08-15T23:00:48.000Z,23.23
2023-08-15T23:03:17.289Z,23.23
2023-08-15T23:05:48.315Z,23.23
2023-08-15T23:08:16.961Z,23.14
2023-08-15T23:10:56.044Z,23.17
2023-08-15T23:13:23.772Z,23.10
2023-08-15T23:15:51.835Z,23.05
2023-08-15T23:18:21.659Z,23.04
2023-08-15T23:20:49.757Z,23.03
2023-08-15T23:23:23.033Z,23.07
2023-08-15T23:25:51.824Z,23.04
2023-08-15T23:28:19.992Z,23.02
2023-08-15T23:30:49.924Z,22.99
2023-08-15T23:33:17.663Z,22.99
2023-08-15T23:35:46.630Z,22.97
2023-08-15T23:38:16.700Z,22.95
2023-08-15T23:40:47.344Z,22.87
2023-08-15T23:43:15.703Z,22.76
2023-08-15T23:45:51.334Z,22.77
2023-08-15T23:48:20.768Z,22.73
2023-08-15T23:50:52.667Z,22.68
2023-08-15T23:53:21.689Z,22.66
2023-08-15T23:55:50.127Z,22.68
2023-08-15T23:58:17.912Z,22.64
